createdAt,value
2023-05-05T00:00:55.145Z,95362.00
2023-05-05T00:01:55.188Z,95360.00
2023-05-05T00:02:55.244Z,95360.00
2023-05-05T00:03:55.265Z,95360.00
2023-05-05T00:04:55.202Z,95358.00
2023-05-05T00:05:55.181Z,95356.00
2023-05-05T00:06:55.221Z,95358.00
2023-05-05T00:07:55.209Z,95360.00
2023-05-05T00:08:55.215Z,95358.00
2023-05-05T00:09:55.243Z,95356.00
2023-05-05T00:10:55.288Z,95358.00
2023-05-05T00:11:55.256Z,95358.00
2023-05-05T00:12:55.309Z,95360.00
2023-05-05T00:13:55.290Z,95360.00
2023-05-05T00:14:55.311Z,95360.00
2023-05-05T00:15:55.335Z,95356.00
2023-05-05T00:16:55.369Z,95360.00
2023-05-05T00:17:55.447Z,95356.00
2023-05-05T00:18:55.394Z,95358.00
2023-05-05T00:19:55.411Z,95356.00
2023-05-05T00:20:55.439Z,95356.00
2023-05-05T00:21:55.467Z,95358.00
2023-05-05T00:22:55.510Z,95358.00
2023-05-05T00:23:55.504Z,95358.00
2023-05-05T00:24:55.553Z,95358.00
2023-05-05T00:25:55.538Z,95354.00
2023-05-05T00:26:55.604Z,95354.00
2023-05-05T00:27:55.583Z,95354.00
2023-05-05T00:28:55.608Z,95354.00
2023-05-05T00:29:55.623Z,95356.00
2023-05-05T00:30:55.731Z,95358.00
2023-05-05T00:31:55.671Z,95358.00
2023-05-05T00:32:55.744Z,95360.00
2023-05-05T00:33:55.717Z,95360.00
2023-05-05T00:34:55.740Z,95360.00
2023-05-05T00:35:55.769Z,95362.00
2023-05-05T00:36:55.784Z,95362.00
2023-05-05T00:37:55.811Z,95360.00
2023-05-05T00:38:55.819Z,95366.00
2023-05-05T00:39:55.843Z,95362.00
2023-05-05T00:40:55.869Z,95364.00
2023-05-05T00:41:55.888Z,95362.00
2023-05-05T00:42:55.932Z,95362.00
2023-05-05T00:43:55.926Z,95364.00
2023-05-05T00:44:55.950Z,95364.00
2023-05-05T00:45:55.971Z,95362.00
2023-05-05T00:46:56.001Z,95362.00
2023-05-05T00:47:56.034Z,95362.00
2023-05-05T00:48:56.070Z,95362.00
2023-05-05T00:49:56.082Z,95358.00
2023-05-05T00:50:56.108Z,95362.00
2023-05-05T00:51:56.131Z,95360.00
2023-05-05T00:52:56.169Z,95360.00
2023-05-05T00:53:56.186Z,95358.00
2023-05-05T00:54:56.232Z,95356.00
2023-05-05T00:55:56.259Z,95356.00
2023-05-05T00:56:56.307Z,95358.00
2023-05-05T00:57:56.352Z,95358.00
2023-05-05T00:58:56.422Z,95358.00
2023-05-05T00:59:56.416Z,95358.00
2023-05-05T01:00:56.463Z,95358.00
2023-05-05T01:01:56.613Z,95358.00
2023-05-05T01:02:56.588Z,95360.00
2023-05-05T01:03:56.687Z,95362.00
2023-05-05T01:04:56.589Z,95358.00
2023-05-05T01:05:56.628Z,95358.00
2023-05-05T01:06:56.665Z,95360.00
2023-05-05T01:07:56.703Z,95358.00
2023-05-05T01:08:56.724Z,95358.00
2023-05-05T01:10:10.967Z,95356.00
2023-05-05T01:10:56.755Z,95354.00
2023-05-05T01:11:56.744Z,95358.00
2023-05-05T01:12:56.804Z,95356.00
2023-05-05T01:13:56.734Z,95356.00
2023-05-05T01:14:56.740Z,95360.00
2023-05-05T01:15:56.744Z,95360.00
2023-05-05T01:16:56.706Z,95360.00
2023-05-05T01:17:56.732Z,95358.00
2023-05-05T01:18:56.702Z,95360.00
2023-05-05T01:19:56.698Z,95360.00
2023-05-05T01:20:56.687Z,95360.00
2023-05-05T01:21:56.669Z,95360.00
2023-05-05T01:22:56.665Z,95358.00
2023-05-05T01:23:56.657Z,95362.00
2023-05-05T01:24:56.647Z,95364.00
2023-05-05T01:25:56.650Z,95364.00
2023-05-05T01:26:56.640Z,95360.00
2023-05-05T01:27:56.650Z,95360.00
2023-05-05T01:28:56.633Z,95360.00
2023-05-05T01:29:56.619Z,95362.00
2023-05-05T01:30:56.656Z,95362.00
2023-05-05T01:31:56.748Z,95360.00
2023-05-05T01:32:56.628Z,95364.00
2023-05-05T01:33:56.593Z,95364.00
2023-05-05T01:34:56.591Z,95364.00
2023-05-05T01:35:56.585Z,95366.00
2023-05-05T01:36:56.570Z,95366.00
2023-05-05T01:37:56.561Z,95366.00
2023-05-05T01:38:56.556Z,95366.00
2023-05-05T01:39:56.548Z,95362.00
2023-05-05T01:40:56.547Z,95364.00
2023-05-05T01:41:56.534Z,95362.00
2023-05-05T01:42:56.532Z,95364.00
2023-05-05T01:43:56.521Z,95364.00
2023-05-05T01:44:56.515Z,95364.00
2023-05-05T01:45:56.547Z,95366.00
2023-05-05T01:46:56.527Z,95368.00
2023-05-05T01:47:56.565Z,95368.00
2023-05-05T01:48:56.499Z,95368.00
2023-05-05T01:49:56.533Z,95370.00
2023-05-05T01:50:56.582Z,95368.00
2023-05-05T01:51:56.611Z,95368.00
2023-05-05T01:52:56.651Z,95372.00
2023-05-05T01:53:56.691Z,95370.00
2023-05-05T01:54:56.732Z,95370.00
2023-05-05T01:55:56.762Z,95370.00
2023-05-05T01:56:56.797Z,95372.00
2023-05-05T01:57:56.862Z,95376.00
2023-05-05T01:58:56.875Z,95374.00
2023-05-05T01:59:56.913Z,95376.00
2023-05-05T02:00:57.107Z,95376.00
2023-05-05T02:01:56.986Z,95380.00
2023-05-05T02:02:57.224Z,95380.00
2023-05-05T02:03:57.076Z,95381.00
2023-05-05T02:04:57.107Z,95378.00
2023-05-05T02:05:57.147Z,95376.00
2023-05-05T02:06:57.185Z,95374.00
2023-05-05T02:07:57.227Z,95376.00
2023-05-05T02:08:57.274Z,95376.00
2023-05-05T02:09:57.306Z,95378.00
2023-05-05T02:10:57.374Z,95378.00
2023-05-05T02:11:57.394Z,95378.00
2023-05-05T02:12:57.511Z,95380.00
2023-05-05T02:13:58.045Z,95378.00
2023-05-05T02:14:57.527Z,95378.00
2023-05-05T02:15:57.639Z,95380.00
2023-05-05T02:16:57.623Z,95381.00
2023-05-05T02:17:57.701Z,95381.00
2023-05-05T02:18:57.728Z,95383.00
2023-05-05T02:19:57.754Z,95383.00
2023-05-05T02:20:57.801Z,95385.00
2023-05-05T02:21:58.417Z,95385.00
2023-05-05T02:22:57.888Z,95385.00
2023-05-05T02:23:57.927Z,95385.00
2023-05-05T02:24:57.980Z,95387.00
2023-05-05T02:25:58.029Z,95387.00
2023-05-05T02:26:58.081Z,95385.00
2023-05-05T02:27:58.139Z,95387.00
2023-05-05T02:28:58.157Z,95383.00
2023-05-05T02:29:58.204Z,95387.00
2023-05-05T02:30:58.283Z,95385.00
2023-05-05T02:31:58.287Z,95383.00
2023-05-05T02:32:58.371Z,95383.00
2023-05-05T02:33:58.388Z,95383.00
2023-05-05T02:34:58.443Z,95381.00
2023-05-05T02:35:58.481Z,95383.00
2023-05-05T02:36:58.542Z,95383.00
2023-05-05T02:37:58.565Z,95385.00
2023-05-05T02:38:58.613Z,95387.00
2023-05-05T02:39:58.669Z,95387.00
2023-05-05T02:40:58.705Z,95389.00
2023-05-05T02:41:58.742Z,95389.00
2023-05-05T02:42:58.813Z,95389.00
2023-05-05T02:43:58.834Z,95387.00
2023-05-05T02:44:58.871Z,95389.00
2023-05-05T02:45:58.922Z,95391.00
2023-05-05T02:46:58.968Z,95391.00
2023-05-05T02:47:59.036Z,95393.00
2023-05-05T02:48:59.080Z,95391.00
2023-05-05T02:49:59.105Z,95391.00
2023-05-05T02:50:59.189Z,95393.00
2023-05-05T02:51:59.198Z,95395.00
2023-05-05T02:52:59.235Z,95397.00
2023-05-05T02:53:59.285Z,95397.00
2023-05-05T02:54:59.342Z,95399.00
2023-05-05T02:55:59.382Z,95399.00
2023-05-05T02:56:59.425Z,95399.00
2023-05-05T02:57:59.468Z,95397.00
2023-05-05T02:58:59.510Z,95399.00
2023-05-05T02:59:59.555Z,95397.00
2023-05-05T03:00:59.618Z,95399.00
2023-05-05T03:01:59.696Z,95397.00
2023-05-05T03:02:59.783Z,95399.00
2023-05-05T03:03:59.766Z,95399.00
2023-05-05T03:04:59.802Z,95399.00
2023-05-05T03:05:59.864Z,95399.00
2023-05-05T03:06:59.935Z,95399.00
2023-05-05T03:07:59.959Z,95397.00
2023-05-05T03:09:00.008Z,95395.00
2023-05-05T03:10:00.070Z,95397.00
2023-05-05T03:11:00.124Z,95399.00
2023-05-05T03:12:00.166Z,95399.00
2023-05-05T03:13:00.259Z,95397.00
2023-05-05T03:14:00.274Z,95399.00
2023-05-05T03:15:00.342Z,95401.00
2023-05-05T03:16:00.417Z,95401.00
2023-05-05T03:17:00.434Z,95401.00
2023-05-05T03:18:00.565Z,95397.00
2023-05-05T03:19:00.541Z,95399.00
2023-05-05T03:20:02.944Z,95399.00
2023-05-05T03:21:00.584Z,95401.00
2023-05-05T03:22:00.584Z,95399.00
2023-05-05T03:23:00.600Z,95401.00
2023-05-05T03:24:00.569Z,95403.00
2023-05-05T03:25:00.567Z,95399.00
2023-05-05T03:26:00.567Z,95401.00
2023-05-05T03:27:00.552Z,95401.00
2023-05-05T03:28:00.548Z,95399.00
2023-05-05T03:29:00.562Z,95401.00
2023-05-05T03:30:00.558Z,95399.00
2023-05-05T03:31:00.549Z,95399.00
2023-05-05T03:32:00.576Z,95401.00
2023-05-05T03:33:00.537Z,95401.00
2023-05-05T03:34:00.517Z,95401.00
2023-05-05T03:35:00.528Z,95399.00
2023-05-05T03:36:00.506Z,95401.00
2023-05-05T03:37:00.525Z,95401.00
2023-05-05T03:38:00.487Z,95399.00
2023-05-05T03:39:00.510Z,95399.00
2023-05-05T03:40:00.478Z,95401.00
2023-05-05T03:41:00.464Z,95399.00
2023-05-05T03:42:00.462Z,95399.00
2023-05-05T03:43:00.451Z,95401.00
2023-05-05T03:44:00.454Z,95401.00
2023-05-05T03:45:00.489Z,95401.00
2023-05-05T03:46:00.628Z,95401.00
2023-05-05T03:47:00.623Z,95401.00
2023-05-05T03:48:00.715Z,95399.00
2023-05-05T03:49:00.727Z,95399.00
2023-05-05T03:50:00.789Z,95399.00
2023-05-05T03:51:00.844Z,95401.00
2023-05-05T03:52:00.914Z,95399.00
2023-05-05T03:53:00.961Z,95411.00
2023-05-05T03:54:01.027Z,95401.00
2023-05-05T03:55:01.113Z,95403.00
2023-05-05T03:56:01.143Z,95403.00
2023-05-05T03:57:01.205Z,95403.00
2023-05-05T03:58:01.266Z,95411.00
2023-05-05T03:59:01.318Z,95403.00
2023-05-05T04:00:01.364Z,95401.00
2023-05-05T04:01:01.414Z,95399.00
2023-05-05T04:02:01.603Z,95399.00
2023-05-05T04:03:01.618Z,95399.00
2023-05-05T04:04:01.605Z,95397.00
2023-05-05T04:05:01.658Z,95391.00
2023-05-05T04:06:01.732Z,95395.00
2023-05-05T04:07:02.592Z,95395.00
2023-05-05T04:08:01.824Z,95397.00
2023-05-05T04:09:01.883Z,95391.00
2023-05-05T04:10:01.942Z,95391.00
2023-05-05T04:11:02.036Z,95391.00
2023-05-05T04:12:02.083Z,95389.00
2023-05-05T04:13:02.211Z,95395.00
2023-05-05T04:14:02.180Z,95389.00
2023-05-05T04:15:02.241Z,95391.00
2023-05-05T04:16:02.353Z,95389.00
2023-05-05T04:17:02.368Z,95391.00
2023-05-05T04:18:02.440Z,95393.00
2023-05-05T04:19:02.493Z,95395.00
2023-05-05T04:20:02.560Z,95397.00
2023-05-05T04:21:02.606Z,95399.00
2023-05-05T04:22:02.704Z,95399.00
2023-05-05T04:23:02.727Z,95401.00
2023-05-05T04:24:02.858Z,95401.00
2023-05-05T04:25:02.841Z,95411.00
2023-05-05T04:26:02.911Z,95411.00
2023-05-05T04:27:02.999Z,95411.00
2023-05-05T04:28:03.052Z,95413.00
2023-05-05T04:29:03.101Z,95413.00
2023-05-05T04:30:03.159Z,95413.00
2023-05-05T04:31:03.329Z,95413.00
2023-05-05T04:32:03.273Z,95413.00
2023-05-05T04:33:03.374Z,95417.00
2023-05-05T04:34:03.407Z,95417.00
2023-05-05T04:35:03.527Z,95415.00
2023-05-05T04:36:03.531Z,95419.00
2023-05-05T04:37:03.564Z,95419.00
2023-05-05T04:38:04.446Z,95421.00
2023-05-05T04:39:03.696Z,95421.00
2023-05-05T04:40:03.742Z,95421.00
2023-05-05T04:41:03.816Z,95419.00
2023-05-05T04:42:03.877Z,95417.00
2023-05-05T04:43:03.937Z,95417.00
2023-05-05T04:44:03.965Z,95415.00
2023-05-05T04:45:04.029Z,95413.00
2023-05-05T04:46:04.184Z,95413.00
2023-05-05T04:47:04.143Z,95413.00
2023-05-05T04:48:04.236Z,95413.00
2023-05-05T04:49:04.261Z,95413.00
2023-05-05T04:50:04.307Z,95413.00
2023-05-05T04:51:04.363Z,95413.00
2023-05-05T04:52:04.412Z,95413.00
2023-05-05T04:53:04.454Z,95413.00
2023-05-05T04:54:04.509Z,95413.00
2023-05-05T04:55:04.570Z,95419.00
2023-05-05T04:56:04.625Z,95417.00
2023-05-05T04:57:04.675Z,95417.00
2023-05-05T04:58:04.728Z,95417.00
2023-05-05T04:59:04.816Z,95417.00
2023-05-05T05:00:04.927Z,95419.00
2023-05-05T05:01:04.895Z,95417.00
2023-05-05T05:02:05.041Z,95423.00
2023-05-05T05:03:05.107Z,95425.00
2023-05-05T05:04:05.144Z,95421.00
2023-05-05T05:05:05.134Z,95423.00
2023-05-05T05:06:05.183Z,95425.00
2023-05-05T05:07:05.262Z,95425.00
2023-05-05T05:08:05.315Z,95425.00
2023-05-05T05:09:05.373Z,95427.00
2023-05-05T05:10:05.594Z,95425.00
2023-05-05T05:11:05.492Z,95427.00
2023-05-05T05:12:05.566Z,95429.00
2023-05-05T05:13:06.057Z,95429.00
2023-05-05T05:14:05.684Z,95431.00
2023-05-05T05:15:05.752Z,95433.00
2023-05-05T05:16:06.020Z,95434.00
2023-05-05T05:17:05.852Z,95434.00
2023-05-05T05:18:06.060Z,95434.00
2023-05-05T05:19:05.986Z,95434.00
2023-05-05T05:20:06.324Z,95433.00
2023-05-05T05:21:06.074Z,95433.00
2023-05-05T05:22:06.139Z,95433.00
2023-05-05T05:23:06.207Z,95434.00
2023-05-05T05:24:06.244Z,95433.00
2023-05-05T05:25:06.300Z,95436.00
2023-05-05T05:26:06.353Z,95434.00
2023-05-05T05:27:09.190Z,95434.00
2023-05-05T05:28:10.499Z,95434.00
2023-05-05T05:29:06.545Z,95433.00
2023-05-05T05:30:06.798Z,95433.00
2023-05-05T05:31:07.031Z,95431.00
2023-05-05T05:32:06.827Z,95431.00
2023-05-05T05:33:06.710Z,95429.00
2023-05-05T05:34:06.678Z,95431.00
2023-05-05T05:35:06.720Z,95431.00
2023-05-05T05:36:06.766Z,95431.00
2023-05-05T05:37:06.824Z,95436.00
2023-05-05T05:38:06.860Z,95436.00
2023-05-05T05:39:06.886Z,95436.00
2023-05-05T05:40:07.187Z,95434.00
2023-05-05T05:41:07.002Z,95438.00
2023-05-05T05:42:07.005Z,95436.00
2023-05-05T05:43:07.024Z,95434.00
2023-05-05T05:44:07.045Z,95433.00
2023-05-05T05:45:07.081Z,95436.00
2023-05-05T05:46:09.069Z,95436.00
2023-05-05T05:47:07.131Z,95436.00
2023-05-05T05:48:07.109Z,95434.00
2023-05-05T05:49:07.080Z,95438.00
2023-05-05T05:50:07.428Z,95434.00
2023-05-05T05:51:07.758Z,95434.00
2023-05-05T05:52:07.081Z,95433.00
2023-05-05T05:53:10.735Z,95433.00
2023-05-05T05:55:07.041Z,95438.00
2023-05-05T05:56:07.127Z,95442.00
2023-05-05T05:57:10.731Z,95440.00
2023-05-05T05:58:07.021Z,95438.00
2023-05-05T05:59:08.006Z,95440.00
2023-05-05T06:00:38.805Z,95440.00
2023-05-05T06:01:10.189Z,95438.00
2023-05-05T06:02:07.036Z,95438.00
2023-05-05T06:04:10.249Z,95436.00
2023-05-05T06:05:06.970Z,95436.00
2023-05-05T06:06:06.963Z,95434.00
2023-05-05T06:07:06.955Z,95433.00
2023-05-05T06:08:06.938Z,95433.00
2023-05-05T06:09:07.017Z,95431.00
2023-05-05T06:10:25.842Z,95436.00
2023-05-05T06:11:10.150Z,95431.00
2023-05-05T06:12:10.296Z,95434.00
2023-05-05T06:13:10.257Z,95434.00
2023-05-05T06:14:06.909Z,95433.00
2023-05-05T06:15:06.904Z,95431.00
2023-05-05T06:17:14.285Z,95429.00
2023-05-05T06:18:10.346Z,95429.00
2023-05-05T06:19:14.320Z,95425.00
2023-05-05T06:20:07.072Z,95425.00
2023-05-05T06:21:06.863Z,95425.00
2023-05-05T06:22:06.896Z,95425.00
2023-05-05T06:23:06.858Z,95425.00
2023-05-05T06:24:07.030Z,95421.00
2023-05-05T06:25:14.261Z,95425.00
2023-05-05T06:26:06.946Z,95427.00
2023-05-05T06:27:07.053Z,95429.00
2023-05-05T06:28:06.821Z,95427.00
2023-05-05T06:29:07.049Z,95427.00
2023-05-05T06:30:06.991Z,95429.00
2023-05-05T06:31:06.818Z,95427.00
2023-05-05T06:32:06.805Z,95425.00
2023-05-05T06:33:07.774Z,95427.00
2023-05-05T06:34:06.792Z,95429.00
2023-05-05T06:35:07.142Z,95423.00
2023-05-05T06:36:06.819Z,95421.00
2023-05-05T06:37:06.769Z,95421.00
2023-05-05T06:38:06.763Z,95423.00
2023-05-05T06:39:08.050Z,95423.00
2023-05-05T06:40:07.089Z,95421.00
2023-05-05T06:41:06.745Z,95421.00
2023-05-05T06:42:06.743Z,95423.00
2023-05-05T06:43:06.747Z,95421.00
2023-05-05T06:44:07.061Z,95421.00
2023-05-05T06:45:06.858Z,95423.00
2023-05-05T06:46:06.870Z,95419.00
2023-05-05T06:47:06.953Z,95421.00
2023-05-05T06:48:07.056Z,95423.00
2023-05-05T06:49:07.059Z,95421.00
2023-05-05T06:50:07.495Z,95421.00
2023-05-05T06:51:07.245Z,95423.00
2023-05-05T06:52:07.182Z,95423.00
2023-05-05T06:53:07.232Z,95425.00
2023-05-05T12:17:56.014Z,95040.00
2023-05-05T12:18:57.160Z,95033.00
2023-05-05T12:19:57.136Z,95035.00
2023-05-05T12:20:57.113Z,95033.00
2023-05-05T12:21:57.161Z,95031.00
2023-05-05T12:22:57.121Z,95031.00
2023-05-05T12:23:57.116Z,95031.00
2023-05-05T12:24:57.119Z,95029.00
2023-05-05T12:25:57.137Z,95027.00
2023-05-05T12:26:57.114Z,95025.00
2023-05-05T12:27:57.124Z,95023.00
2023-05-05T12:28:57.120Z,95025.00
2023-05-05T12:29:57.121Z,95021.00
2023-05-05T12:30:57.216Z,95017.00
2023-05-05T12:31:57.163Z,95015.00
2023-05-05T12:32:57.145Z,95013.00
2023-05-05T12:33:57.228Z,95015.00
2023-05-05T12:34:57.117Z,95011.00
2023-05-05T12:35:57.115Z,95011.00
2023-05-05T12:36:57.076Z,95009.00
2023-05-05T12:37:56.743Z,95009.00
2023-05-05T12:38:56.708Z,95001.00
2023-05-05T12:39:57.078Z,95003.00
2023-05-05T12:40:56.682Z,95003.00
2023-05-05T12:41:56.677Z,94997.00
2023-05-05T12:42:56.675Z,95003.00
2023-05-05T12:43:56.676Z,95003.00
2023-05-05T12:44:56.661Z,95001.00
2023-05-05T12:45:56.677Z,94999.00
2023-05-05T12:46:56.732Z,94995.00
2023-05-05T12:47:56.674Z,94991.00
2023-05-05T12:48:56.638Z,94991.00
2023-05-05T12:49:57.254Z,94991.00
2023-05-05T12:50:56.634Z,94986.00
2023-05-05T12:51:56.669Z,94990.00
2023-05-05T12:52:56.622Z,94988.00
2023-05-05T12:53:56.609Z,94986.00
2023-05-05T12:54:57.187Z,94982.00
2023-05-05T12:55:56.585Z,94980.00
2023-05-05T12:56:56.606Z,94982.00
2023-05-05T12:57:56.667Z,94980.00
2023-05-05T12:58:56.725Z,94978.00
2023-05-05T12:59:57.191Z,94974.00
2023-05-05T13:00:57.268Z,94972.00
2023-05-05T13:01:57.282Z,94972.00
2023-05-05T13:02:57.318Z,94974.00
2023-05-05T13:03:57.188Z,94974.00
2023-05-05T13:04:57.221Z,94972.00
2023-05-05T13:05:57.570Z,94968.00
2023-05-05T13:06:57.196Z,94970.00
2023-05-05T13:07:57.203Z,94964.00
2023-05-05T13:08:57.203Z,94964.00
2023-05-05T13:09:57.199Z,94962.00
2023-05-05T13:10:57.210Z,94960.00
2023-05-05T13:11:57.206Z,94958.00
2023-05-05T13:12:57.643Z,94958.00
2023-05-05T13:13:57.209Z,94954.00
2023-05-05T13:14:57.209Z,94958.00
2023-05-05T13:15:57.202Z,94952.00
2023-05-05T13:16:57.221Z,94954.00
2023-05-05T13:17:57.240Z,94950.00
2023-05-05T13:18:57.255Z,94950.00
2023-05-05T13:19:57.215Z,94948.00
2023-05-05T13:20:57.212Z,94946.00
2023-05-05T13:21:57.313Z,94944.00
2023-05-05T13:22:57.220Z,94943.00
2023-05-05T13:24:08.153Z,94943.00
2023-05-05T13:24:57.238Z,94941.00
2023-05-05T13:25:57.564Z,94937.00
2023-05-05T13:26:57.224Z,94937.00
2023-05-05T13:27:57.221Z,94935.00
2023-05-05T13:28:57.232Z,94933.00
2023-05-05T13:29:57.580Z,94931.00
2023-05-05T13:30:57.227Z,94931.00
2023-05-05T13:31:57.254Z,94927.00
2023-05-05T13:32:57.312Z,94925.00
2023-05-05T13:33:57.212Z,94927.00
2023-05-05T13:34:57.208Z,94921.00
2023-05-05T13:35:57.211Z,94921.00
2023-05-05T13:36:57.211Z,94915.00
2023-05-05T13:37:57.366Z,94915.00
2023-05-05T13:38:57.213Z,94915.00
2023-05-05T13:39:57.211Z,94913.00
2023-05-05T13:40:57.210Z,94909.00
2023-05-05T13:41:57.215Z,94907.00
2023-05-05T13:42:57.213Z,94907.00
2023-05-05T13:43:57.235Z,94905.00
2023-05-05T13:44:57.217Z,94903.00
2023-05-05T13:46:08.745Z,94901.00
2023-05-05T13:46:57.287Z,94901.00
2023-05-05T13:47:57.255Z,94899.00
2023-05-05T13:48:57.576Z,94897.00
2023-05-05T13:49:57.220Z,94890.00
2023-05-05T13:50:57.225Z,94897.00
2023-05-05T13:51:57.221Z,94897.00
2023-05-05T13:52:57.206Z,94890.00
2023-05-05T13:53:57.235Z,94888.00
2023-05-05T13:54:57.219Z,94886.00
2023-05-05T13:55:57.231Z,94884.00
2023-05-05T13:56:57.212Z,94878.00
2023-05-05T13:57:57.215Z,94878.00
2023-05-05T13:58:57.232Z,94874.00
2023-05-05T13:59:57.212Z,94874.00
2023-05-05T14:00:58.143Z,94876.00
2023-05-05T14:01:57.230Z,94872.00
2023-05-05T14:02:57.270Z,94872.00
2023-05-05T14:03:57.763Z,94864.00
2023-05-05T14:04:57.230Z,94868.00
2023-05-05T14:05:57.209Z,94864.00
2023-05-05T14:06:57.211Z,94860.00
2023-05-05T14:07:57.206Z,94856.00
2023-05-05T14:08:57.580Z,94860.00
2023-05-05T14:09:57.304Z,94858.00
2023-05-05T14:10:57.577Z,94856.00
2023-05-05T14:11:57.212Z,94850.00
2023-05-05T14:12:57.289Z,94852.00
2023-05-05T14:13:57.209Z,94850.00
2023-05-05T14:14:57.203Z,94848.00
2023-05-05T14:15:57.242Z,94846.00
2023-05-05T14:16:57.357Z,94844.00
2023-05-05T14:17:57.348Z,94846.00
2023-05-05T14:18:57.578Z,94844.00
2023-05-05T14:19:58.144Z,94844.00
2023-05-05T14:20:57.480Z,94846.00
2023-05-05T14:21:57.550Z,94843.00
2023-05-05T14:22:57.600Z,94843.00
2023-05-05T14:23:58.148Z,94843.00
2023-05-05T14:24:57.706Z,94843.00
2023-05-05T14:25:58.249Z,94843.00
2023-05-05T14:26:58.145Z,94841.00
2023-05-05T14:27:58.157Z,94841.00
2023-05-05T14:28:58.589Z,94839.00
2023-05-05T14:29:58.141Z,94837.00
2023-05-05T14:30:58.145Z,94837.00
2023-05-05T14:31:58.175Z,94837.00
2023-05-05T14:32:58.152Z,94837.00
2023-05-05T14:33:58.592Z,94833.00
2023-05-05T14:34:58.216Z,94835.00
2023-05-05T14:35:58.281Z,94837.00
2023-05-05T14:36:58.340Z,94835.00
2023-05-05T14:37:58.411Z,94835.00
2023-05-05T14:38:58.530Z,94833.00
2023-05-05T14:39:58.503Z,94833.00
2023-05-05T14:40:58.583Z,94833.00
2023-05-05T14:41:58.736Z,94831.00
2023-05-05T14:42:58.671Z,94833.00
2023-05-05T14:43:59.106Z,94833.00
2023-05-05T14:44:58.771Z,94831.00
2023-05-05T14:45:58.881Z,94831.00
2023-05-05T14:46:59.105Z,94831.00
2023-05-05T14:47:58.972Z,94829.00
2023-05-05T14:48:59.311Z,94827.00
2023-05-05T14:49:59.065Z,94829.00
2023-05-05T14:50:59.128Z,94829.00
2023-05-05T14:51:59.178Z,94827.00
2023-05-05T14:52:59.238Z,94827.00
2023-05-05T14:53:59.311Z,94823.00
2023-05-05T14:54:59.350Z,94825.00
2023-05-05T14:55:59.388Z,94827.00
2023-05-05T14:56:59.489Z,94823.00
2023-05-05T14:57:59.555Z,94819.00
2023-05-05T14:58:59.557Z,94821.00
2023-05-05T14:59:59.633Z,94819.00
2023-05-05T15:00:59.668Z,94819.00
2023-05-05T15:01:59.752Z,94817.00
2023-05-05T15:02:59.827Z,94815.00
2023-05-05T15:03:59.966Z,94819.00
2023-05-05T15:05:00.130Z,94817.00
2023-05-05T15:05:59.956Z,94815.00
2023-05-05T15:07:00.033Z,94813.00
2023-05-05T15:08:00.083Z,94813.00
2023-05-05T15:09:00.139Z,94813.00
2023-05-05T15:10:00.214Z,94813.00
2023-05-05T15:11:00.250Z,94811.00
2023-05-05T15:12:00.304Z,94807.00
2023-05-05T15:13:00.436Z,94809.00
2023-05-05T15:14:00.514Z,94809.00
2023-05-05T15:15:00.477Z,94809.00
2023-05-05T15:16:00.562Z,94809.00
2023-05-05T15:17:00.555Z,94809.00
2023-05-05T15:18:00.659Z,94811.00
2023-05-05T15:19:00.669Z,94805.00
2023-05-05T15:20:00.714Z,94807.00
2023-05-05T15:21:00.773Z,94807.00
2023-05-05T15:22:00.856Z,94803.00
2023-05-05T15:23:00.867Z,94807.00
2023-05-05T15:24:00.902Z,94807.00
2023-05-05T15:25:00.957Z,94811.00
2023-05-05T15:26:01.006Z,94805.00
2023-05-05T15:27:01.048Z,94807.00
2023-05-05T15:28:01.165Z,94807.00
2023-05-05T15:29:01.137Z,94803.00
2023-05-05T15:30:01.281Z,94801.00
2023-05-05T15:31:01.209Z,94803.00
2023-05-05T15:32:01.401Z,94803.00
2023-05-05T15:33:01.364Z,94803.00
2023-05-05T15:34:01.388Z,94801.00
2023-05-05T15:35:01.428Z,94803.00
2023-05-05T15:36:01.504Z,94803.00
2023-05-05T15:37:01.539Z,94801.00
2023-05-05T15:38:01.573Z,94803.00
2023-05-05T15:39:01.631Z,94799.00
2023-05-05T15:40:01.668Z,94797.00
2023-05-05T15:41:01.719Z,94799.00
2023-05-05T15:42:01.963Z,94799.00
2023-05-05T15:43:01.966Z,94797.00
2023-05-05T15:44:01.961Z,94797.00
2023-05-05T15:45:02.013Z,94797.00
2023-05-05T15:46:02.074Z,94797.00
2023-05-05T15:47:02.022Z,94796.00
2023-05-05T15:48:02.153Z,94797.00
2023-05-05T15:49:02.163Z,94790.00
2023-05-05T15:50:02.218Z,94794.00
2023-05-05T15:51:02.235Z,94792.00
2023-05-05T15:52:02.267Z,94792.00
2023-05-05T15:53:02.310Z,94790.00
2023-05-05T15:54:02.384Z,94790.00
2023-05-05T15:55:02.382Z,94788.00
2023-05-05T15:56:02.442Z,94790.00
2023-05-05T15:57:02.483Z,94788.00
2023-05-05T15:58:02.542Z,94786.00
2023-05-05T15:59:02.578Z,94784.00
2023-05-05T16:00:02.633Z,94786.00
2023-05-05T16:01:02.680Z,94782.00
2023-05-05T16:02:02.802Z,94784.00
2023-05-05T16:03:02.825Z,94784.00
2023-05-05T16:04:02.790Z,94782.00
2023-05-05T16:05:02.843Z,94782.00
2023-05-05T16:06:02.904Z,94780.00
2023-05-05T16:07:02.927Z,94780.00
2023-05-05T16:08:02.960Z,94782.00
2023-05-05T16:09:03.026Z,94778.00
2023-05-05T16:10:03.027Z,94776.00
2023-05-05T16:11:03.076Z,94774.00
2023-05-05T16:12:03.120Z,94774.00
2023-05-05T16:13:03.251Z,94774.00
2023-05-05T16:14:03.194Z,94774.00
2023-05-05T16:15:03.236Z,94772.00
2023-05-05T16:16:03.273Z,94772.00
2023-05-05T16:17:03.428Z,94774.00
2023-05-05T16:18:03.507Z,94776.00
2023-05-05T16:19:03.427Z,94776.00
2023-05-05T16:20:03.482Z,94772.00
2023-05-05T16:21:03.523Z,94774.00
2023-05-05T16:22:03.588Z,94780.00
2023-05-05T16:23:03.623Z,94780.00
2023-05-05T16:24:03.694Z,94778.00
2023-05-05T16:25:03.745Z,94782.00
2023-05-05T16:26:03.789Z,94782.00
2023-05-05T16:27:03.829Z,94786.00
2023-05-05T16:28:03.876Z,94786.00
2023-05-05T16:29:03.931Z,94788.00
2023-05-05T16:30:03.976Z,94790.00
2023-05-05T16:31:04.287Z,94788.00
2023-05-05T16:32:04.181Z,94788.00
2023-05-05T16:33:04.232Z,94790.00
2023-05-05T16:34:04.315Z,94790.00
2023-05-05T16:35:04.247Z,94790.00
2023-05-05T16:36:04.304Z,94790.00
2023-05-05T16:37:04.369Z,94788.00
2023-05-05T16:38:04.422Z,94788.00
2023-05-05T16:39:04.474Z,94784.00
2023-05-05T16:40:04.537Z,94784.00
2023-05-05T16:41:04.606Z,94784.00
2023-05-05T16:42:04.643Z,94784.00
2023-05-05T16:43:04.715Z,94780.00
2023-05-05T16:44:04.799Z,94780.00
2023-05-05T16:45:04.845Z,94774.00
2023-05-05T16:46:04.915Z,94776.00
2023-05-05T16:47:04.928Z,94778.00
2023-05-05T16:48:06.815Z,94776.00
2023-05-05T16:49:05.039Z,94776.00
2023-05-05T16:50:05.018Z,94774.00
2023-05-05T16:51:04.979Z,94774.00
2023-05-05T16:52:04.970Z,94772.00
2023-05-05T16:53:04.962Z,94774.00
2023-05-05T16:54:04.964Z,94776.00
2023-05-05T16:55:05.048Z,94770.00
2023-05-05T16:56:04.957Z,94772.00
2023-05-05T16:57:04.951Z,94772.00
2023-05-05T16:58:04.941Z,94772.00
2023-05-05T16:59:04.999Z,94768.00
2023-05-05T17:00:04.992Z,94768.00
2023-05-05T17:01:04.936Z,94772.00
2023-05-05T17:02:05.020Z,94770.00
2023-05-05T17:03:05.058Z,94772.00
2023-05-05T17:04:05.081Z,94774.00
2023-05-05T17:05:05.217Z,94774.00
2023-05-05T17:06:05.319Z,94776.00
2023-05-05T17:07:05.233Z,94776.00
2023-05-05T17:08:05.263Z,94774.00
2023-05-05T17:09:05.304Z,94778.00
2023-05-05T17:10:05.356Z,94774.00
2023-05-05T17:11:05.433Z,94778.00
2023-05-05T17:12:05.465Z,94776.00